sensor_id;sensor_type;location;lat;lon;timestamp;P1;durP1;ratioP1;P2;durP2;ratioP2
55025;SDS011;40925;45.666;18.994;2024-03-23T00:54:09;72.78;;;36.35;;
55025;SDS011;40925;45.666;18.994;2024-03-23T00:56:35;71.97;;;37.13;;
55025;SDS011;40925;45.666;18.994;2024-03-23T00:59:01;68.00;;;33.78;;
55025;SDS011;40925;45.666;18.994;2024-03-23T01:01:27;72.18;;;35.53;;
55025;SDS011;40925;45.666;18.994;2024-03-23T01:04:03;80.78;;;44.50;;
55025;SDS011;40925;45.666;18.994;2024-03-23T01:06:29;70.82;;;37.70;;
55025;SDS011;40925;45.666;18.994;2024-03-23T01:08:55;52.85;;;30.45;;
55025;SDS011;40925;45.666;18.994;2024-03-23T01:11:21;50.20;;;28.00;;
55025;SDS011;40925;45.666;18.994;2024-03-23T01:13:47;42.38;;;25.25;;
55025;SDS011;40925;45.666;18.994;2024-03-23T01:16:13;61.22;;;32.35;;
55025;SDS011;40925;45.666;18.994;2024-03-23T01:18:38;61.65;;;31.38;;
55025;SDS011;40925;45.666;18.994;2024-03-23T01:26:23;43.30;;;23.85;;
55025;SDS011;40925;45.666;18.994;2024-03-23T01:28:51;41.55;;;22.58;;
55025;SDS011;40925;45.666;18.994;2024-03-23T01:31:35;40.42;;;23.63;;
55025;SDS011;40925;45.666;18.994;2024-03-23T01:34:19;44.53;;;24.05;;
55025;SDS011;40925;45.666;18.994;2024-03-23T01:36:46;48.60;;;25.48;;
55025;SDS011;40925;45.666;18.994;2024-03-23T01:39:12;43.65;;;23.90;;
55025;SDS011;40925;45.666;18.994;2024-03-23T01:41:39;42.75;;;24.27;;
55025;SDS011;40925;45.666;18.994;2024-03-23T01:44:07;45.42;;;24.38;;
55025;SDS011;40925;45.666;18.994;2024-03-23T01:46:33;42.38;;;23.75;;
55025;SDS011;40925;45.666;18.994;2024-03-23T01:49:03;48.50;;;24.85;;
55025;SDS011;40925;45.666;18.994;2024-03-23T01:51:30;44.78;;;24.08;;
55025;SDS011;40925;45.666;18.994;2024-03-23T01:54:09;48.35;;;25.20;;
55025;SDS011;40925;45.666;18.994;2024-03-23T01:56:35;48.50;;;25.58;;
55025;SDS011;40925;45.666;18.994;2024-03-23T01:59:07;44.97;;;24.83;;
55025;SDS011;40925;45.666;18.994;2024-03-23T02:01:34;48.50;;;24.95;;
55025;SDS011;40925;45.666;18.994;2024-03-23T02:04:03;52.17;;;26.13;;
55025;SDS011;40925;45.666;18.994;2024-03-23T02:06:29;44.15;;;24.75;;
55025;SDS011;40925;45.666;18.994;2024-03-23T02:08:55;41.75;;;23.88;;
55025;SDS011;40925;45.666;18.994;2024-03-23T02:11:21;40.20;;;23.67;;
55025;SDS011;40925;45.666;18.994;2024-03-23T02:13:47;41.47;;;24.65;;
55025;SDS011;40925;45.666;18.994;2024-03-23T02:16:13;39.50;;;23.48;;
55025;SDS011;40925;45.666;18.994;2024-03-23T02:18:39;34.10;;;21.25;;
55025;SDS011;40925;45.666;18.994;2024-03-23T02:21:05;36.45;;;21.98;;
55025;SDS011;40925;45.666;18.994;2024-03-23T02:23:30;36.83;;;21.17;;
55025;SDS011;40925;45.666;18.994;2024-03-23T02:25:56;35.10;;;21.42;;
55025;SDS011;40925;45.666;18.994;2024-03-23T02:28:22;35.90;;;21.35;;
55025;SDS011;40925;45.666;18.994;2024-03-23T02:30:48;35.15;;;22.35;;
55025;SDS011;40925;45.666;18.994;2024-03-23T02:33:15;33.38;;;20.95;;
55025;SDS011;40925;45.666;18.994;2024-03-23T02:35:41;36.97;;;21.65;;
55025;SDS011;40925;45.666;18.994;2024-03-23T02:38:07;34.45;;;20.92;;
55025;SDS011;40925;45.666;18.994;2024-03-23T02:40:33;38.75;;;23.13;;
55025;SDS011;40925;45.666;18.994;2024-03-23T02:42:59;58.03;;;32.08;;
55025;SDS011;40925;45.666;18.994;2024-03-23T02:45:24;64.97;;;32.33;;
55025;SDS011;40925;45.666;18.994;2024-03-23T02:47:50;44.28;;;24.42;;
55025;SDS011;40925;45.666;18.994;2024-03-23T02:50:19;41.10;;;23.33;;
55025;SDS011;40925;45.666;18.994;2024-03-23T02:52:45;36.80;;;22.30;;
55025;SDS011;40925;45.666;18.994;2024-03-23T02:55:11;41.03;;;24.25;;
55025;SDS011;40925;45.666;18.994;2024-03-23T02:57:36;39.22;;;23.65;;
55025;SDS011;40925;45.666;18.994;2024-03-23T03:00:03;39.17;;;22.88;;
55025;SDS011;40925;45.666;18.994;2024-03-23T03:02:30;40.17;;;24.60;;
55025;SDS011;40925;45.666;18.994;2024-03-23T03:04:56;44.85;;;25.38;;
55025;SDS011;40925;45.666;18.994;2024-03-23T03:07:21;44.28;;;24.85;;
55025;SDS011;40925;45.666;18.994;2024-03-23T03:09:47;42.38;;;24.58;;
55025;SDS011;40925;45.666;18.994;2024-03-23T03:12:13;45.60;;;26.20;;
55025;SDS011;40925;45.666;18.994;2024-03-23T03:14:38;38.72;;;23.60;;
55025;SDS011;40925;45.666;18.994;2024-03-23T03:17:04;37.90;;;22.48;;
55025;SDS011;40925;45.666;18.994;2024-03-23T03:19:30;37.63;;;22.42;;
55025;SDS011;40925;45.666;18.994;2024-03-23T03:21:59;36.67;;;22.85;;
55025;SDS011;40925;45.666;18.994;2024-03-23T03:24:24;39.47;;;23.35;;
55025;SDS011;40925;45.666;18.994;2024-03-23T03:26:50;37.30;;;21.95;;
55025;SDS011;40925;45.666;18.994;2024-03-23T03:29:16;37.80;;;23.17;;
55025;SDS011;40925;45.666;18.994;2024-03-23T03:31:42;37.83;;;23.02;;
55025;SDS011;40925;45.666;18.994;2024-03-23T03:34:08;38.97;;;23.02;;
55025;SDS011;40925;45.666;18.994;2024-03-23T03:36:34;38.10;;;23.17;;
55025;SDS011;40925;45.666;18.994;2024-03-23T03:39:01;38.95;;;23.70;;
55025;SDS011;40925;45.666;18.994;2024-03-23T03:41:31;40.90;;;23.00;;
55025;SDS011;40925;45.666;18.994;2024-03-23T03:43:57;39.83;;;23.17;;
55025;SDS011;40925;45.666;18.994;2024-03-23T03:46:26;43.08;;;24.02;;
55025;SDS011;40925;45.666;18.994;2024-03-23T03:48:55;42.13;;;23.50;;
55025;SDS011;40925;45.666;18.994;2024-03-23T03:51:21;39.47;;;23.77;;
55025;SDS011;40925;45.666;18.994;2024-03-23T03:53:47;40.83;;;24.20;;
55025;SDS011;40925;45.666;18.994;2024-03-23T03:56:12;42.17;;;24.80;;
55025;SDS011;40925;45.666;18.994;2024-03-23T03:58:38;39.88;;;22.48;;
55025;SDS011;40925;45.666;18.994;2024-03-23T04:01:05;38.55;;;23.17;;
55025;SDS011;40925;45.666;18.994;2024-03-23T04:03:30;42.08;;;23.88;;
55025;SDS011;40925;45.666;18.994;2024-03-23T04:05:56;38.97;;;22.73;;
55025;SDS011;40925;45.666;18.994;2024-03-23T04:08:22;41.35;;;24.13;;
55025;SDS011;40925;45.666;18.994;2024-03-23T04:10:50;41.65;;;23.80;;
55025;SDS011;40925;45.666;18.994;2024-03-23T04:13:15;40.60;;;23.67;;
55025;SDS011;40925;45.666;18.994;2024-03-23T04:15:41;38.75;;;22.90;;
55025;SDS011;40925;45.666;18.994;2024-03-23T04:18:07;48.35;;;25.85;;
55025;SDS011;40925;45.666;18.994;2024-03-23T04:20:33;49.22;;;25.13;;
55025;SDS011;40925;45.666;18.994;2024-03-23T04:22:59;46.70;;;25.40;;
55025;SDS011;40925;45.666;18.994;2024-03-23T04:25:25;49.63;;;25.45;;
55025;SDS011;40925;45.666;18.994;2024-03-23T04:27:51;45.15;;;25.67;;
55025;SDS011;40925;45.666;18.994;2024-03-23T04:30:17;40.97;;;23.20;;
55025;SDS011;40925;45.666;18.994;2024-03-23T04:32:44;44.03;;;23.77;;
55025;SDS011;40925;45.666;18.994;2024-03-23T04:35:10;43.53;;;23.35;;
55025;SDS011;40925;45.666;18.994;2024-03-23T04:37:38;43.75;;;23.10;;
55025;SDS011;40925;45.666;18.994;2024-03-23T04:40:08;43.25;;;23.13;;
55025;SDS011;40925;45.666;18.994;2024-03-23T04:42:36;40.78;;;22.88;;
55025;SDS011;40925;45.666;18.994;2024-03-23T04:45:02;41.85;;;23.42;;
55025;SDS011;40925;45.666;18.994;2024-03-23T04:47:28;44.50;;;21.90;;
55025;SDS011;40925;45.666;18.994;2024-03-23T04:49:54;42.60;;;23.63;;
55025;SDS011;40925;45.666;18.994;2024-03-23T04:52:20;40.92;;;21.75;;
55025;SDS011;40925;45.666;18.994;2024-03-23T04:54:46;39.17;;;22.50;;
55025;SDS011;40925;45.666;18.994;2024-03-23T04:57:12;41.55;;;23.70;;
55025;SDS011;40925;45.666;18.994;2024-03-23T04:59:38;41.95;;;23.33;;
55025;SDS011;40925;45.666;18.994;2024-03-23T05:02:03;41.85;;;24.35;;
55025;SDS011;40925;45.666;18.994;2024-03-23T05:04:29;41.85;;;23.42;;
55025;SDS011;40925;45.666;18.994;2024-03-23T05:06:55;45.65;;;23.05;;
55025;SDS011;40925;45.666;18.994;2024-03-23T05:09:23;44.80;;;23.10;;
55025;SDS011;40925;45.666;18.994;2024-03-23T05:11:49;42.53;;;24.30;;
55025;SDS011;40925;45.666;18.994;2024-03-23T05:14:15;44.22;;;24.15;;
55025;SDS011;40925;45.666;18.994;2024-03-23T05:16:41;42.45;;;23.95;;
55025;SDS011;40925;45.666;18.994;2024-03-23T05:19:07;41.83;;;23.60;;
55025;SDS011;40925;45.666;18.994;2024-03-23T05:21:36;42.47;;;23.25;;
55025;SDS011;40925;45.666;18.994;2024-03-23T05:24:02;44.28;;;23.23;;
55025;SDS011;40925;45.666;18.994;2024-03-23T05:26:28;41.65;;;22.20;;
55025;SDS011;40925;45.666;18.994;2024-03-23T05:28:54;42.28;;;23.55;;
55025;SDS011;40925;45.666;18.994;2024-03-23T05:31:30;40.83;;;23.63;;
55025;SDS011;40925;45.666;18.994;2024-03-23T05:33:56;41.25;;;22.73;;
55025;SDS011;40925;45.666;18.994;2024-03-23T05:36:22;42.38;;;23.80;;
55025;SDS011;40925;45.666;18.994;2024-03-23T05:38:49;42.22;;;24.05;;
55025;SDS011;40925;45.666;18.994;2024-03-23T05:41:15;46.97;;;24.80;;
55025;SDS011;40925;45.666;18.994;2024-03-23T05:43:41;43.55;;;24.77;;
55025;SDS011;40925;45.666;18.994;2024-03-23T05:46:07;44.45;;;24.15;;
55025;SDS011;40925;45.666;18.994;2024-03-23T05:48:33;43.47;;;24.98;;
55025;SDS011;40925;45.666;18.994;2024-03-23T05:50:59;43.97;;;24.77;;
55025;SDS011;40925;45.666;18.994;2024-03-23T05:53:25;42.33;;;24.55;;
55025;SDS011;40925;45.666;18.994;2024-03-23T05:55:51;40.05;;;23.73;;
55025;SDS011;40925;45.666;18.994;2024-03-23T05:58:24;40.60;;;23.85;;
55025;SDS011;40925;45.666;18.994;2024-03-23T06:00:56;43.28;;;23.20;;
55025;SDS011;40925;45.666;18.994;2024-03-23T06:03:23;44.00;;;24.70;;
55025;SDS011;40925;45.666;18.994;2024-03-23T06:05:48;43.10;;;24.00;;
55025;SDS011;40925;45.666;18.994;2024-03-23T06:08:14;43.08;;;23.55;;
55025;SDS011;40925;45.666;18.994;2024-03-23T06:10:40;40.63;;;23.90;;
55025;SDS011;40925;45.666;18.994;2024-03-23T06:13:06;43.85;;;25.92;;
55025;SDS011;40925;45.666;18.994;2024-03-23T06:15:33;37.63;;;24.02;;
55025;SDS011;40925;45.666;18.994;2024-03-23T06:18:05;34.60;;;19.80;;
55025;SDS011;40925;45.666;18.994;2024-03-23T06:20:33;38.20;;;23.17;;
55025;SDS011;40925;45.666;18.994;2024-03-23T06:23:00;34.35;;;21.63;;
55025;SDS011;40925;45.666;18.994;2024-03-23T06:25:27;34.53;;;20.80;;
55025;SDS011;40925;45.666;18.994;2024-03-23T06:27:53;32.72;;;20.13;;
55025;SDS011;40925;45.666;18.994;2024-03-23T06:30:18;32.17;;;20.95;;
55025;SDS011;40925;45.666;18.994;2024-03-23T06:32:44;34.80;;;22.38;;
55025;SDS011;40925;45.666;18.994;2024-03-23T06:35:09;32.90;;;20.80;;
55025;SDS011;40925;45.666;18.994;2024-03-23T06:37:35;31.98;;;21.40;;
55025;SDS011;40925;45.666;18.994;2024-03-23T06:40:01;32.47;;;21.30;;
55025;SDS011;40925;45.666;18.994;2024-03-23T06:42:28;33.13;;;20.23;;
55025;SDS011;40925;45.666;18.994;2024-03-23T06:44:54;33.75;;;20.40;;
55025;SDS011;40925;45.666;18.994;2024-03-23T06:47:19;30.98;;;19.48;;
55025;SDS011;40925;45.666;18.994;2024-03-23T06:49:53;33.70;;;20.65;;
55025;SDS011;40925;45.666;18.994;2024-03-23T06:52:18;32.30;;;21.15;;
55025;SDS011;40925;45.666;18.994;2024-03-23T06:54:44;30.45;;;19.52;;
55025;SDS011;40925;45.666;18.994;2024-03-23T06:57:11;25.33;;;17.20;;
55025;SDS011;40925;45.666;18.994;2024-03-23T06:59:37;28.77;;;18.83;;
55025;SDS011;40925;45.666;18.994;2024-03-23T07:02:06;26.52;;;18.58;;
55025;SDS011;40925;45.666;18.994;2024-03-23T07:04:34;28.42;;;18.52;;
55025;SDS011;40925;45.666;18.994;2024-03-23T07:07:00;26.13;;;17.38;;
55025;SDS011;40925;45.666;18.994;2024-03-23T07:09:27;25.65;;;17.00;;
55025;SDS011;40925;45.666;18.994;2024-03-23T07:11:58;25.63;;;16.70;;
55025;SDS011;40925;45.666;18.994;2024-03-23T07:14:24;29.42;;;17.70;;
55025;SDS011;40925;45.666;18.994;2024-03-23T07:16:50;25.08;;;16.80;;
55025;SDS011;40925;45.666;18.994;2024-03-23T07:19:16;23.35;;;16.45;;
55025;SDS011;40925;45.666;18.994;2024-03-23T07:21:43;23.73;;;15.20;;
55025;SDS011;40925;45.666;18.994;2024-03-23T07:24:10;22.50;;;15.75;;
55025;SDS011;40925;45.666;18.994;2024-03-23T07:26:36;23.50;;;15.73;;
55025;SDS011;40925;45.666;18.994;2024-03-23T07:29:03;20.42;;;14.48;;
55025;SDS011;40925;45.666;18.994;2024-03-23T07:31:29;20.25;;;13.60;;
55025;SDS011;40925;45.666;18.994;2024-03-23T07:33:55;19.60;;;12.93;;
55025;SDS011;40925;45.666;18.994;2024-03-23T07:36:21;21.13;;;13.38;;
55025;SDS011;40925;45.666;18.994;2024-03-23T07:38:46;20.15;;;13.45;;
55025;SDS011;40925;45.666;18.994;2024-03-23T07:41:15;19.83;;;12.90;;
55025;SDS011;40925;45.666;18.994;2024-03-23T07:43:42;19.58;;;12.38;;
55025;SDS011;40925;45.666;18.994;2024-03-23T07:46:08;19.67;;;10.90;;
55025;SDS011;40925;45.666;18.994;2024-03-23T07:48:34;18.90;;;12.82;;
55025;SDS011;40925;45.666;18.994;2024-03-23T07:53:32;16.25;;;11.40;;
55025;SDS011;40925;45.666;18.994;2024-03-23T07:56:06;18.75;;;11.95;;
55025;SDS011;40925;45.666;18.994;2024-03-23T07:58:33;16.70;;;11.75;;
55025;SDS011;40925;45.666;18.994;2024-03-23T08:01:07;15.90;;;11.25;;
55025;SDS011;40925;45.666;18.994;2024-03-23T08:03:33;18.60;;;11.95;;
55025;SDS011;40925;45.666;18.994;2024-03-23T08:08:38;20.83;;;11.20;;
55025;SDS011;40925;45.666;18.994;2024-03-23T08:11:05;20.52;;;11.60;;
55025;SDS011;40925;45.666;18.994;2024-03-23T08:13:31;17.90;;;11.80;;
55025;SDS011;40925;45.666;18.994;2024-03-23T08:15:58;16.45;;;10.40;;
55025;SDS011;40925;45.666;18.994;2024-03-23T08:18:24;15.90;;;11.40;;
55025;SDS011;40925;45.666;18.994;2024-03-23T08:21:11;19.23;;;12.35;;
55025;SDS011;40925;45.666;18.994;2024-03-23T08:23:36;17.85;;;11.98;;
55025;SDS011;40925;45.666;18.994;2024-03-23T08:26:03;18.05;;;11.10;;
55025;SDS011;40925;45.666;18.994;2024-03-23T08:28:36;17.98;;;11.82;;
55025;SDS011;40925;45.666;18.994;2024-03-23T08:31:09;19.95;;;10.98;;
55025;SDS011;40925;45.666;18.994;2024-03-23T08:33:36;14.90;;;10.77;;
55025;SDS011;40925;45.666;18.994;2024-03-23T08:36:03;19.98;;;11.40;;
55025;SDS011;40925;45.666;18.994;2024-03-23T08:38:32;14.45;;;9.60;;
55025;SDS011;40925;45.666;18.994;2024-03-23T08:40:59;13.75;;;9.73;;
55025;SDS011;40925;45.666;18.994;2024-03-23T08:43:27;16.65;;;10.52;;
55025;SDS011;40925;45.666;18.994;2024-03-23T08:45:53;16.52;;;9.93;;
55025;SDS011;40925;45.666;18.994;2024-03-23T08:48:19;16.88;;;10.32;;
55025;SDS011;40925;45.666;18.994;2024-03-23T08:50:46;16.23;;;9.95;;
55025;SDS011;40925;45.666;18.994;2024-03-23T08:53:12;14.45;;;9.32;;
55025;SDS011;40925;45.666;18.994;2024-03-23T08:55:38;13.35;;;9.32;;
55025;SDS011;40925;45.666;18.994;2024-03-23T08:58:04;12.75;;;8.15;;
55025;SDS011;40925;45.666;18.994;2024-03-23T09:00:33;13.30;;;8.48;;
55025;SDS011;40925;45.666;18.994;2024-03-23T09:02:59;13.18;;;8.10;;
55025;SDS011;40925;45.666;18.994;2024-03-23T09:05:26;15.50;;;9.10;;
55025;SDS011;40925;45.666;18.994;2024-03-23T09:07:53;14.20;;;9.55;;
55025;SDS011;40925;45.666;18.994;2024-03-23T09:10:19;12.15;;;8.10;;
55025;SDS011;40925;45.666;18.994;2024-03-23T09:12:45;14.40;;;9.10;;
55025;SDS011;40925;45.666;18.994;2024-03-23T09:15:10;12.98;;;8.40;;
55025;SDS011;40925;45.666;18.994;2024-03-23T09:17:36;13.85;;;7.53;;
55025;SDS011;40925;45.666;18.994;2024-03-23T09:20:02;11.38;;;7.75;;
55025;SDS011;40925;45.666;18.994;2024-03-23T09:22:29;11.80;;;7.25;;
55025;SDS011;40925;45.666;18.994;2024-03-23T09:24:55;11.25;;;7.60;;
55025;SDS011;40925;45.666;18.994;2024-03-23T09:27:21;13.82;;;8.10;;
55025;SDS011;40925;45.666;18.994;2024-03-23T09:29:46;9.65;;;6.53;;
55025;SDS011;40925;45.666;18.994;2024-03-23T09:32:12;9.25;;;6.40;;
55025;SDS011;40925;45.666;18.994;2024-03-23T09:34:38;10.20;;;6.60;;
55025;SDS011;40925;45.666;18.994;2024-03-23T09:37:03;9.40;;;6.55;;
55025;SDS011;40925;45.666;18.994;2024-03-23T09:39:29;13.32;;;7.50;;
55025;SDS011;40925;45.666;18.994;2024-03-23T09:41:58;11.68;;;7.50;;
55025;SDS011;40925;45.666;18.994;2024-03-23T09:44:24;10.98;;;6.32;;
55025;SDS011;40925;45.666;18.994;2024-03-23T09:46:51;12.10;;;7.07;;
55025;SDS011;40925;45.666;18.994;2024-03-23T09:49:17;10.00;;;6.80;;
55025;SDS011;40925;45.666;18.994;2024-03-23T09:51:42;8.20;;;5.63;;
55025;SDS011;40925;45.666;18.994;2024-03-23T09:54:08;9.15;;;6.22;;
55025;SDS011;40925;45.666;18.994;2024-03-23T09:56:34;8.43;;;5.65;;
55025;SDS011;40925;45.666;18.994;2024-03-23T09:59:01;8.52;;;5.70;;
55025;SDS011;40925;45.666;18.994;2024-03-23T10:01:29;10.60;;;6.20;;
55025;SDS011;40925;45.666;18.994;2024-03-23T10:03:55;13.32;;;7.78;;
55025;SDS011;40925;45.666;18.994;2024-03-23T10:06:21;8.10;;;5.05;;
55025;SDS011;40925;45.666;18.994;2024-03-23T10:08:49;8.70;;;6.15;;
55025;SDS011;40925;45.666;18.994;2024-03-23T10:11:16;9.38;;;6.10;;
55025;SDS011;40925;45.666;18.994;2024-03-23T10:13:43;10.57;;;5.82;;
55025;SDS011;40925;45.666;18.994;2024-03-23T10:16:09;12.15;;;6.55;;
55025;SDS011;40925;45.666;18.994;2024-03-23T10:18:38;8.02;;;5.03;;
55025;SDS011;40925;45.666;18.994;2024-03-23T10:23:31;9.18;;;5.65;;
55025;SDS011;40925;45.666;18.994;2024-03-23T10:26:22;8.18;;;5.65;;
55025;SDS011;40925;45.666;18.994;2024-03-23T10:31:24;12.68;;;7.15;;
55025;SDS011;40925;45.666;18.994;2024-03-23T10:33:50;8.80;;;5.53;;
55025;SDS011;40925;45.666;18.994;2024-03-23T10:36:19;7.07;;;4.65;;
55025;SDS011;40925;45.666;18.994;2024-03-23T10:38:52;9.73;;;5.57;;
55025;SDS011;40925;45.666;18.994;2024-03-23T10:41:19;8.20;;;5.30;;
55025;SDS011;40925;45.666;18.994;2024-03-23T10:43:45;8.90;;;5.40;;
55025;SDS011;40925;45.666;18.994;2024-03-23T10:46:13;9.75;;;5.43;;
55025;SDS011;40925;45.666;18.994;2024-03-23T10:48:40;6.65;;;4.25;;
55025;SDS011;40925;45.666;18.994;2024-03-23T10:51:07;10.10;;;6.30;;
55025;SDS011;40925;45.666;18.994;2024-03-23T10:53:38;7.70;;;5.50;;
55025;SDS011;40925;45.666;18.994;2024-03-23T10:56:04;6.40;;;4.38;;
55025;SDS011;40925;45.666;18.994;2024-03-23T10:58:43;6.15;;;4.85;;
55025;SDS011;40925;45.666;18.994;2024-03-23T11:01:11;8.25;;;5.05;;
55025;SDS011;40925;45.666;18.994;2024-03-23T11:03:44;8.38;;;4.97;;
55025;SDS011;40925;45.666;18.994;2024-03-23T11:06:11;6.35;;;4.25;;
55025;SDS011;40925;45.666;18.994;2024-03-23T11:09:00;8.93;;;5.38;;
55025;SDS011;40925;45.666;18.994;2024-03-23T11:11:26;7.97;;;4.55;;
55025;SDS011;40925;45.666;18.994;2024-03-23T11:13:53;7.35;;;4.00;;
55025;SDS011;40925;45.666;18.994;2024-03-23T11:16:24;5.88;;;3.80;;
55025;SDS011;40925;45.666;18.994;2024-03-23T11:21:52;5.75;;;3.58;;
55025;SDS011;40925;45.666;18.994;2024-03-23T11:24:19;7.13;;;3.28;;
55025;SDS011;40925;45.666;18.994;2024-03-23T11:26:46;5.40;;;3.08;;
55025;SDS011;40925;45.666;18.994;2024-03-23T11:29:13;4.45;;;3.30;;
55025;SDS011;40925;45.666;18.994;2024-03-23T11:31:50;5.88;;;3.22;;
55025;SDS011;40925;45.666;18.994;2024-03-23T11:34:16;6.13;;;3.33;;
55025;SDS011;40925;45.666;18.994;2024-03-23T11:36:43;4.95;;;2.42;;
55025;SDS011;40925;45.666;18.994;2024-03-23T11:39:18;7.10;;;2.80;;
55025;SDS011;40925;45.666;18.994;2024-03-23T11:44:18;6.47;;;2.90;;
55025;SDS011;40925;45.666;18.994;2024-03-23T11:46:45;4.50;;;3.30;;
55025;SDS011;40925;45.666;18.994;2024-03-23T11:51:50;4.85;;;2.90;;
55025;SDS011;40925;45.666;18.994;2024-03-23T11:54:22;3.88;;;2.85;;
55025;SDS011;40925;45.666;18.994;2024-03-23T11:56:59;5.63;;;2.90;;
55025;SDS011;40925;45.666;18.994;2024-03-23T11:59:41;6.22;;;3.05;;
55025;SDS011;40925;45.666;18.994;2024-03-23T12:02:07;8.13;;;3.05;;
55025;SDS011;40925;45.666;18.994;2024-03-23T12:04:35;8.82;;;2.75;;
55025;SDS011;40925;45.666;18.994;2024-03-23T12:07:11;4.00;;;3.00;;
55025;SDS011;40925;45.666;18.994;2024-03-23T12:09:44;5.45;;;2.85;;
55025;SDS011;40925;45.666;18.994;2024-03-23T12:12:17;5.28;;;3.17;;
55025;SDS011;40925;45.666;18.994;2024-03-23T12:15:02;8.63;;;2.97;;
55025;SDS011;40925;45.666;18.994;2024-03-23T12:17:30;5.47;;;3.40;;
55025;SDS011;40925;45.666;18.994;2024-03-23T12:19:56;7.43;;;3.88;;
55025;SDS011;40925;45.666;18.994;2024-03-23T12:22:25;4.63;;;2.88;;
55025;SDS011;40925;45.666;18.994;2024-03-23T12:24:51;4.57;;;2.83;;
55025;SDS011;40925;45.666;18.994;2024-03-23T12:27:17;4.45;;;3.10;;
55025;SDS011;40925;45.666;18.994;2024-03-23T12:29:43;4.85;;;3.20;;
55025;SDS011;40925;45.666;18.994;2024-03-23T12:32:13;5.47;;;3.53;;
55025;SDS011;40925;45.666;18.994;2024-03-23T12:34:40;5.15;;;3.50;;
55025;SDS011;40925;45.666;18.994;2024-03-23T12:37:06;6.10;;;3.17;;
55025;SDS011;40925;45.666;18.994;2024-03-23T12:39:32;5.57;;;3.70;;
55025;SDS011;40925;45.666;18.994;2024-03-23T12:42:03;7.43;;;2.85;;
55025;SDS011;40925;45.666;18.994;2024-03-23T12:44:29;4.63;;;3.00;;
55025;SDS011;40925;45.666;18.994;2024-03-23T12:46:54;4.55;;;3.20;;
55025;SDS011;40925;45.666;18.994;2024-03-23T12:49:20;6.18;;;3.60;;
55025;SDS011;40925;45.666;18.994;2024-03-23T12:51:52;4.28;;;2.80;;
55025;SDS011;40925;45.666;18.994;2024-03-23T12:54:20;7.43;;;2.90;;
55025;SDS011;40925;45.666;18.994;2024-03-23T12:56:45;6.65;;;2.92;;
55025;SDS011;40925;45.666;18.994;2024-03-23T12:59:11;6.00;;;2.80;;
55025;SDS011;40925;45.666;18.994;2024-03-23T13:01:38;4.97;;;3.30;;
55025;SDS011;40925;45.666;18.994;2024-03-23T13:04:04;4.22;;;3.25;;
55025;SDS011;40925;45.666;18.994;2024-03-23T13:06:29;8.13;;;3.60;;
55025;SDS011;40925;45.666;18.994;2024-03-23T13:08:59;6.45;;;3.15;;
55025;SDS011;40925;45.666;18.994;2024-03-23T13:11:29;5.10;;;3.13;;
55025;SDS011;40925;45.666;18.994;2024-03-23T13:13:55;7.85;;;4.22;;
55025;SDS011;40925;45.666;18.994;2024-03-23T13:16:21;7.43;;;3.83;;
55025;SDS011;40925;45.666;18.994;2024-03-23T13:18:47;5.65;;;3.50;;
55025;SDS011;40925;45.666;18.994;2024-03-23T13:21:13;6.55;;;2.80;;
55025;SDS011;40925;45.666;18.994;2024-03-23T13:23:38;4.88;;;3.30;;
55025;SDS011;40925;45.666;18.994;2024-03-23T13:26:07;4.55;;;3.20;;
55025;SDS011;40925;45.666;18.994;2024-03-23T13:28:33;4.82;;;3.00;;
55025;SDS011;40925;45.666;18.994;2024-03-23T13:30:58;3.83;;;2.80;;
55025;SDS011;40925;45.666;18.994;2024-03-23T13:33:28;4.43;;;3.10;;
55025;SDS011;40925;45.666;18.994;2024-03-23T13:35:55;4.72;;;3.10;;
55025;SDS011;40925;45.666;18.994;2024-03-23T13:38:21;5.53;;;3.42;;
55025;SDS011;40925;45.666;18.994;2024-03-23T13:40:57;4.55;;;2.78;;
55025;SDS011;40925;45.666;18.994;2024-03-23T13:43:25;4.30;;;3.17;;
55025;SDS011;40925;45.666;18.994;2024-03-23T13:45:55;5.45;;;3.60;;
55025;SDS011;40925;45.666;18.994;2024-03-23T13:48:23;7.15;;;3.88;;
55025;SDS011;40925;45.666;18.994;2024-03-23T13:50:57;6.38;;;3.72;;
55025;SDS011;40925;45.666;18.994;2024-03-23T14:04:39;14.55;;;10.15;;
55025;SDS011;40925;45.666;18.994;2024-03-23T14:07:05;12.82;;;8.48;;
55025;SDS011;40925;45.666;18.994;2024-03-23T14:09:32;6.05;;;4.57;;
55025;SDS011;40925;45.666;18.994;2024-03-23T14:11:58;6.70;;;3.30;;
55025;SDS011;40925;45.666;18.994;2024-03-23T14:14:25;8.52;;;4.15;;
55025;SDS011;40925;45.666;18.994;2024-03-23T14:16:51;10.02;;;4.30;;
55025;SDS011;40925;45.666;18.994;2024-03-23T14:19:16;13.63;;;6.22;;
55025;SDS011;40925;45.666;18.994;2024-03-23T14:21:42;16.25;;;5.90;;
55025;SDS011;40925;45.666;18.994;2024-03-23T14:24:07;10.65;;;5.22;;
55025;SDS011;40925;45.666;18.994;2024-03-23T14:26:34;6.45;;;3.85;;
55025;SDS011;40925;45.666;18.994;2024-03-23T14:29:00;9.05;;;5.43;;
55025;SDS011;40925;45.666;18.994;2024-03-23T14:31:26;9.18;;;4.80;;
55025;SDS011;40925;45.666;18.994;2024-03-23T14:33:52;10.40;;;6.20;;
55025;SDS011;40925;45.666;18.994;2024-03-23T14:36:17;8.18;;;5.03;;
55025;SDS011;40925;45.666;18.994;2024-03-23T14:38:49;9.00;;;5.00;;
55025;SDS011;40925;45.666;18.994;2024-03-23T14:41:15;4.65;;;3.30;;
55025;SDS011;40925;45.666;18.994;2024-03-23T14:43:41;6.10;;;3.78;;
55025;SDS011;40925;45.666;18.994;2024-03-23T14:46:12;5.78;;;3.88;;
55025;SDS011;40925;45.666;18.994;2024-03-23T14:48:40;4.97;;;3.00;;
55025;SDS011;40925;45.666;18.994;2024-03-23T14:51:06;5.30;;;3.30;;
55025;SDS011;40925;45.666;18.994;2024-03-23T14:53:39;8.43;;;3.55;;
55025;SDS011;40925;45.666;18.994;2024-03-23T14:56:09;7.25;;;3.88;;
55025;SDS011;40925;45.666;18.994;2024-03-23T14:58:37;6.47;;;4.03;;
55025;SDS011;40925;45.666;18.994;2024-03-23T15:01:07;6.60;;;4.07;;
55025;SDS011;40925;45.666;18.994;2024-03-23T15:03:36;5.63;;;3.80;;
55025;SDS011;40925;45.666;18.994;2024-03-23T15:06:05;6.22;;;4.63;;
55025;SDS011;40925;45.666;18.994;2024-03-23T15:08:31;10.18;;;6.45;;
55025;SDS011;40925;45.666;18.994;2024-03-23T15:11:00;11.13;;;7.57;;
55025;SDS011;40925;45.666;18.994;2024-03-23T15:13:30;10.60;;;5.63;;
55025;SDS011;40925;45.666;18.994;2024-03-23T15:15:59;10.20;;;6.90;;
55025;SDS011;40925;45.666;18.994;2024-03-23T15:18:24;10.43;;;7.65;;
55025;SDS011;40925;45.666;18.994;2024-03-23T15:20:54;10.15;;;6.85;;
55025;SDS011;40925;45.666;18.994;2024-03-23T15:23:20;11.00;;;6.70;;
55025;SDS011;40925;45.666;18.994;2024-03-23T15:25:53;10.25;;;7.15;;
55025;SDS011;40925;45.666;18.994;2024-03-23T15:28:28;11.25;;;7.07;;
55025;SDS011;40925;45.666;18.994;2024-03-23T15:31:08;11.40;;;6.38;;
55025;SDS011;40925;45.666;18.994;2024-03-23T15:33:34;12.93;;;8.43;;
55025;SDS011;40925;45.666;18.994;2024-03-23T15:36:01;9.93;;;7.38;;
55025;SDS011;40925;45.666;18.994;2024-03-23T15:38:27;13.10;;;8.65;;
55025;SDS011;40925;45.666;18.994;2024-03-23T15:40:56;14.57;;;9.45;;
55025;SDS011;40925;45.666;18.994;2024-03-23T15:43:23;13.20;;;9.23;;
55025;SDS011;40925;45.666;18.994;2024-03-23T15:45:55;22.50;;;13.32;;
55025;SDS011;40925;45.666;18.994;2024-03-23T15:48:21;16.25;;;10.57;;